sensor_id;sensor_type;location;lat;lon;timestamp;temperature;humidity
65034;DHT22;51601;51.356;12.458;2022-09-17T00:01:22;13.30;67.00
65034;DHT22;51601;51.356;12.458;2022-09-17T00:05:36;13.20;67.10
65034;DHT22;51601;51.356;12.458;2022-09-17T00:09:50;13.10;67.40
65034;DHT22;51601;51.356;12.458;2022-09-17T00:14:06;13.10;67.60
65034;DHT22;51601;51.356;12.458;2022-09-17T00:18:21;13.00;67.80
65034;DHT22;51601;51.356;12.458;2022-09-17T00:22:35;13.10;68.30
65034;DHT22;51601;51.356;12.458;2022-09-17T00:26:49;13.10;68.80
65034;DHT22;51601;51.356;12.458;2022-09-17T00:31:07;13.10;68.70
65034;DHT22;51601;51.356;12.458;2022-09-17T00:35:21;13.30;68.50
65034;DHT22;51601;51.356;12.458;2022-09-17T00:39:35;13.30;68.30
65034;DHT22;51601;51.356;12.458;2022-09-17T00:43:50;13.30;68.20
65034;DHT22;51601;51.356;12.458;2022-09-17T00:48:08;13.40;68.20
65034;DHT22;51601;51.356;12.458;2022-09-17T00:52:27;13.40;68.30
65034;DHT22;51601;51.356;12.458;2022-09-17T00:56:43;13.40;68.30
65034;DHT22;51601;51.356;12.458;2022-09-17T01:00:56;13.50;68.40
65034;DHT22;51601;51.356;12.458;2022-09-17T01:05:13;13.50;68.30
65034;DHT22;51601;51.356;12.458;2022-09-17T01:09:35;13.60;68.40
65034;DHT22;51601;51.356;12.458;2022-09-17T01:14:01;13.60;68.30
65034;DHT22;51601;51.356;12.458;2022-09-17T01:18:29;13.60;68.20
65034;DHT22;51601;51.356;12.458;2022-09-17T01:22:55;13.70;68.20
65034;DHT22;51601;51.356;12.458;2022-09-17T01:27:28;13.70;68.30
65034;DHT22;51601;51.356;12.458;2022-09-17T01:31:51;13.70;68.30
65034;DHT22;51601;51.356;12.458;2022-09-17T01:36:15;13.70;68.40
65034;DHT22;51601;51.356;12.458;2022-09-17T01:40:37;13.70;68.50
65034;DHT22;51601;51.356;12.458;2022-09-17T01:44:56;13.80;68.60
65034;DHT22;51601;51.356;12.458;2022-09-17T01:49:15;13.80;68.50
65034;DHT22;51601;51.356;12.458;2022-09-17T01:53:35;13.80;68.50
65034;DHT22;51601;51.356;12.458;2022-09-17T01:57:52;13.80;68.70
65034;DHT22;51601;51.356;12.458;2022-09-17T02:02:11;13.80;68.80
65034;DHT22;51601;51.356;12.458;2022-09-17T02:06:33;13.80;68.80
65034;DHT22;51601;51.356;12.458;2022-09-17T02:10:55;13.90;68.80
65034;DHT22;51601;51.356;12.458;2022-09-17T02:15:13;13.90;68.90
65034;DHT22;51601;51.356;12.458;2022-09-17T02:19:33;13.90;68.90
65034;DHT22;51601;51.356;12.458;2022-09-17T02:23:54;13.90;69.70
65034;DHT22;51601;51.356;12.458;2022-09-17T02:28:14;13.90;69.10
65034;DHT22;51601;51.356;12.458;2022-09-17T02:32:29;13.90;69.30
65034;DHT22;51601;51.356;12.458;2022-09-17T02:36:43;13.90;69.50
65034;DHT22;51601;51.356;12.458;2022-09-17T02:41:05;13.90;69.90
65034;DHT22;51601;51.356;12.458;2022-09-17T02:45:37;13.80;70.10
65034;DHT22;51601;51.356;12.458;2022-09-17T02:50:15;13.80;70.30
65034;DHT22;51601;51.356;12.458;2022-09-17T02:54:37;13.80;70.60
65034;DHT22;51601;51.356;12.458;2022-09-17T02:58:57;13.70;70.80
65034;DHT22;51601;51.356;12.458;2022-09-17T03:03:18;13.70;71.10
65034;DHT22;51601;51.356;12.458;2022-09-17T03:07:34;13.70;71.50
65034;DHT22;51601;51.356;12.458;2022-09-17T03:11:48;13.60;72.00
65034;DHT22;51601;51.356;12.458;2022-09-17T03:16:03;13.60;72.40
65034;DHT22;51601;51.356;12.458;2022-09-17T03:20:16;13.50;72.70
65034;DHT22;51601;51.356;12.458;2022-09-17T03:24:31;13.50;74.00
65034;DHT22;51601;51.356;12.458;2022-09-17T03:28:44;13.50;74.00
65034;DHT22;51601;51.356;12.458;2022-09-17T03:33:00;13.40;74.80
65034;DHT22;51601;51.356;12.458;2022-09-17T03:37:13;13.30;75.80
65034;DHT22;51601;51.356;12.458;2022-09-17T03:41:27;13.10;76.70
65034;DHT22;51601;51.356;12.458;2022-09-17T03:45:42;13.00;77.70
65034;DHT22;51601;51.356;12.458;2022-09-17T03:49:57;12.90;78.80
65034;DHT22;51601;51.356;12.458;2022-09-17T03:54:10;12.80;80.00
65034;DHT22;51601;51.356;12.458;2022-09-17T03:58:24;12.70;80.80
65034;DHT22;51601;51.356;12.458;2022-09-17T04:02:38;12.60;81.70
65034;DHT22;51601;51.356;12.458;2022-09-17T04:06:53;12.50;82.60
65034;DHT22;51601;51.356;12.458;2022-09-17T04:11:07;12.50;83.60
65034;DHT22;51601;51.356;12.458;2022-09-17T04:15:21;12.40;84.50
65034;DHT22;51601;51.356;12.458;2022-09-17T04:19:35;12.40;85.70
65034;DHT22;51601;51.356;12.458;2022-09-17T04:23:50;12.30;87.10
65034;DHT22;51601;51.356;12.458;2022-09-17T04:28:04;12.30;88.30
65034;DHT22;51601;51.356;12.458;2022-09-17T04:32:17;12.20;89.20
65034;DHT22;51601;51.356;12.458;2022-09-17T04:36:31;12.20;90.00
65034;DHT22;51601;51.356;12.458;2022-09-17T04:40:46;12.20;90.20
65034;DHT22;51601;51.356;12.458;2022-09-17T04:45:00;12.20;90.40
65034;DHT22;51601;51.356;12.458;2022-09-17T04:49:14;12.20;90.70
65034;DHT22;51601;51.356;12.458;2022-09-17T04:53:27;12.20;91.00
65034;DHT22;51601;51.356;12.458;2022-09-17T04:57:46;12.20;91.40
65034;DHT22;51601;51.356;12.458;2022-09-17T05:02:00;12.20;91.70
65034;DHT22;51601;51.356;12.458;2022-09-17T05:06:15;12.10;91.90
65034;DHT22;51601;51.356;12.458;2022-09-17T05:10:29;12.20;92.30
65034;DHT22;51601;51.356;12.458;2022-09-17T05:14:44;12.10;92.50
65034;DHT22;51601;51.356;12.458;2022-09-17T05:18:57;12.20;92.70
65034;DHT22;51601;51.356;12.458;2022-09-17T05:23:11;12.10;92.80
65034;DHT22;51601;51.356;12.458;2022-09-17T05:27:25;12.20;92.90
65034;DHT22;51601;51.356;12.458;2022-09-17T05:31:40;12.30;92.90
65034;DHT22;51601;51.356;12.458;2022-09-17T05:35:54;12.30;92.90
65034;DHT22;51601;51.356;12.458;2022-09-17T05:40:08;12.40;92.90
65034;DHT22;51601;51.356;12.458;2022-09-17T05:44:22;12.40;92.90
65034;DHT22;51601;51.356;12.458;2022-09-17T05:48:38;12.40;92.80
65034;DHT22;51601;51.356;12.458;2022-09-17T05:52:53;12.50;92.70
65034;DHT22;51601;51.356;12.458;2022-09-17T05:57:06;12.60;92.60
65034;DHT22;51601;51.356;12.458;2022-09-17T06:01:20;12.70;92.50
65034;DHT22;51601;51.356;12.458;2022-09-17T06:05:35;12.80;92.30
65034;DHT22;51601;51.356;12.458;2022-09-17T06:09:49;12.90;92.20
65034;DHT22;51601;51.356;12.458;2022-09-17T06:14:03;13.00;92.00
65034;DHT22;51601;51.356;12.458;2022-09-17T06:18:17;13.10;91.70
65034;DHT22;51601;51.356;12.458;2022-09-17T06:22:32;13.30;91.50
65034;DHT22;51601;51.356;12.458;2022-09-17T06:26:46;13.50;91.10
65034;DHT22;51601;51.356;12.458;2022-09-17T06:31:00;13.70;90.40
65034;DHT22;51601;51.356;12.458;2022-09-17T06:35:14;13.70;89.80
65034;DHT22;51601;51.356;12.458;2022-09-17T06:39:29;13.80;89.00
65034;DHT22;51601;51.356;12.458;2022-09-17T06:43:42;14.00;88.70
65034;DHT22;51601;51.356;12.458;2022-09-17T06:47:56;14.10;87.40
65034;DHT22;51601;51.356;12.458;2022-09-17T06:52:10;14.30;87.00
65034;DHT22;51601;51.356;12.458;2022-09-17T06:56:25;14.80;85.60
65034;DHT22;51601;51.356;12.458;2022-09-17T07:00:39;15.30;82.00
65034;DHT22;51601;51.356;12.458;2022-09-17T07:04:53;15.50;79.60
65034;DHT22;51601;51.356;12.458;2022-09-17T07:09:06;15.80;77.10
65034;DHT22;51601;51.356;12.458;2022-09-17T07:13:24;16.00;74.80
65034;DHT22;51601;51.356;12.458;2022-09-17T07:17:38;16.20;73.10
65034;DHT22;51601;51.356;12.458;2022-09-17T07:21:52;16.30;72.20
65034;DHT22;51601;51.356;12.458;2022-09-17T07:26:09;16.50;71.00
65034;DHT22;51601;51.356;12.458;2022-09-17T07:30:26;16.60;70.30
65034;DHT22;51601;51.356;12.458;2022-09-17T07:34:39;17.10;69.20
65034;DHT22;51601;51.356;12.458;2022-09-17T07:38:53;17.80;67.70
65034;DHT22;51601;51.356;12.458;2022-09-17T07:43:07;18.70;65.80
65034;DHT22;51601;51.356;12.458;2022-09-17T07:47:22;19.40;61.70
65034;DHT22;51601;51.356;12.458;2022-09-17T07:51:36;19.60;59.30
65034;DHT22;51601;51.356;12.458;2022-09-17T07:55:52;19.50;58.40
65034;DHT22;51601;51.356;12.458;2022-09-17T08:00:07;19.10;57.90
65034;DHT22;51601;51.356;12.458;2022-09-17T08:04:25;19.10;57.30
65034;DHT22;51601;51.356;12.458;2022-09-17T08:08:39;19.70;56.80
65034;DHT22;51601;51.356;12.458;2022-09-17T08:12:54;20.60;54.40
65034;DHT22;51601;51.356;12.458;2022-09-17T08:17:08;20.60;52.60
65034;DHT22;51601;51.356;12.458;2022-09-17T08:21:24;20.20;52.70
65034;DHT22;51601;51.356;12.458;2022-09-17T08:25:37;20.00;52.70
65034;DHT22;51601;51.356;12.458;2022-09-17T08:29:51;19.50;53.00
65034;DHT22;51601;51.356;12.458;2022-09-17T08:34:06;19.10;53.20
65034;DHT22;51601;51.356;12.458;2022-09-17T08:38:22;18.80;54.00
65034;DHT22;51601;51.356;12.458;2022-09-17T08:42:40;18.60;53.80
65034;DHT22;51601;51.356;12.458;2022-09-17T08:46:59;18.20;55.20
65034;DHT22;51601;51.356;12.458;2022-09-17T08:51:21;17.70;55.40
65034;DHT22;51601;51.356;12.458;2022-09-17T08:55:43;17.40;56.10
65034;DHT22;51601;51.356;12.458;2022-09-17T09:00:02;17.20;56.60
65034;DHT22;51601;51.356;12.458;2022-09-17T09:04:43;17.20;56.80
65034;DHT22;51601;51.356;12.458;2022-09-17T09:09:01;17.30;56.40
65034;DHT22;51601;51.356;12.458;2022-09-17T09:13:21;17.30;56.20
65034;DHT22;51601;51.356;12.458;2022-09-17T09:17:40;17.30;56.40
65034;DHT22;51601;51.356;12.458;2022-09-17T09:22:01;17.50;56.80
65034;DHT22;51601;51.356;12.458;2022-09-17T09:26:17;17.70;56.50
65034;DHT22;51601;51.356;12.458;2022-09-17T09:30:46;17.80;56.70
65034;DHT22;51601;51.356;12.458;2022-09-17T09:35:15;17.90;56.80
65034;DHT22;51601;51.356;12.458;2022-09-17T09:39:30;18.00;56.80
65034;DHT22;51601;51.356;12.458;2022-09-17T09:44:01;18.10;56.70
65034;DHT22;51601;51.356;12.458;2022-09-17T09:48:24;18.50;55.90
65034;DHT22;51601;51.356;12.458;2022-09-17T09:52:51;19.20;54.20
65034;DHT22;51601;51.356;12.458;2022-09-17T09:57:10;19.50;52.20
65034;DHT22;51601;51.356;12.458;2022-09-17T10:01:26;19.20;51.90
65034;DHT22;51601;51.356;12.458;2022-09-17T10:05:52;19.00;52.40
65034;DHT22;51601;51.356;12.458;2022-09-17T10:10:09;19.20;52.20
65034;DHT22;51601;51.356;12.458;2022-09-17T10:14:24;19.40;51.20
65034;DHT22;51601;51.356;12.458;2022-09-17T10:18:38;19.70;50.70
65034;DHT22;51601;51.356;12.458;2022-09-17T10:22:53;20.00;49.40
65034;DHT22;51601;51.356;12.458;2022-09-17T10:27:17;20.20;48.70
65034;DHT22;51601;51.356;12.458;2022-09-17T10:31:45;21.00;47.40
65034;DHT22;51601;51.356;12.458;2022-09-17T10:36:01;21.10;46.50
65034;DHT22;51601;51.356;12.458;2022-09-17T10:40:29;21.10;46.20
65034;DHT22;51601;51.356;12.458;2022-09-17T10:44:50;20.90;46.10
65034;DHT22;51601;51.356;12.458;2022-09-17T10:49:09;20.50;46.20
65034;DHT22;51601;51.356;12.458;2022-09-17T10:53:25;20.30;46.90
65034;DHT22;51601;51.356;12.458;2022-09-17T10:58:07;20.40;46.80
65034;DHT22;51601;51.356;12.458;2022-09-17T11:02:56;20.40;46.10
65034;DHT22;51601;51.356;12.458;2022-09-17T11:07:40;20.40;45.70
65034;DHT22;51601;51.356;12.458;2022-09-17T11:12:09;20.20;45.80
65034;DHT22;51601;51.356;12.458;2022-09-17T11:16:36;20.30;45.80
65034;DHT22;51601;51.356;12.458;2022-09-17T11:21:04;20.20;45.10
65034;DHT22;51601;51.356;12.458;2022-09-17T11:25:39;20.00;45.30
65034;DHT22;51601;51.356;12.458;2022-09-17T11:30:13;19.60;46.40
65034;DHT22;51601;51.356;12.458;2022-09-17T11:34:32;19.10;48.30
65034;DHT22;51601;51.356;12.458;2022-09-17T11:38:49;18.50;50.50
65034;DHT22;51601;51.356;12.458;2022-09-17T11:43:11;17.90;52.80
65034;DHT22;51601;51.356;12.458;2022-09-17T11:47:34;17.30;53.60
65034;DHT22;51601;51.356;12.458;2022-09-17T11:51:53;17.00;54.30
65034;DHT22;51601;51.356;12.458;2022-09-17T11:56:14;17.10;55.50
65034;DHT22;51601;51.356;12.458;2022-09-17T12:00:32;17.60;55.10
65034;DHT22;51601;51.356;12.458;2022-09-17T12:04:56;18.30;54.40
65034;DHT22;51601;51.356;12.458;2022-09-17T12:09:16;19.00;52.40
65034;DHT22;51601;51.356;12.458;2022-09-17T12:13:34;19.40;51.50
65034;DHT22;51601;51.356;12.458;2022-09-17T12:17:55;19.30;51.20
65034;DHT22;51601;51.356;12.458;2022-09-17T12:22:34;19.20;51.30
65034;DHT22;51601;51.356;12.458;2022-09-17T12:27:03;18.90;51.40
65034;DHT22;51601;51.356;12.458;2022-09-17T12:31:24;18.60;50.60
65034;DHT22;51601;51.356;12.458;2022-09-17T12:40:29;18.20;49.00
65034;DHT22;51601;51.356;12.458;2022-09-17T12:45:14;18.10;49.10
65034;DHT22;51601;51.356;12.458;2022-09-17T12:49:46;18.10;49.10
65034;DHT22;51601;51.356;12.458;2022-09-17T12:54:12;18.10;49.00
65034;DHT22;51601;51.356;12.458;2022-09-17T12:58:51;18.30;49.40
65034;DHT22;51601;51.356;12.458;2022-09-17T13:03:17;18.40;47.60
65034;DHT22;51601;51.356;12.458;2022-09-17T13:07:56;18.70;46.20
65034;DHT22;51601;51.356;12.458;2022-09-17T13:12:21;18.80;45.20
65034;DHT22;51601;51.356;12.458;2022-09-17T13:16:40;18.90;44.60
65034;DHT22;51601;51.356;12.458;2022-09-17T13:21:02;19.00;45.10
65034;DHT22;51601;51.356;12.458;2022-09-17T13:25:20;19.00;44.80
65034;DHT22;51601;51.356;12.458;2022-09-17T13:29:57;18.90;45.50
65034;DHT22;51601;51.356;12.458;2022-09-17T13:34:26;18.40;47.30
65034;DHT22;51601;51.356;12.458;2022-09-17T13:38:43;18.20;48.60
65034;DHT22;51601;51.356;12.458;2022-09-17T13:43:04;18.10;48.90
65034;DHT22;51601;51.356;12.458;2022-09-17T13:47:22;18.10;49.20
65034;DHT22;51601;51.356;12.458;2022-09-17T13:51:49;18.30;49.70
65034;DHT22;51601;51.356;12.458;2022-09-17T13:56:27;18.50;49.30
65034;DHT22;51601;51.356;12.458;2022-09-17T14:00:49;18.40;50.30
65034;DHT22;51601;51.356;12.458;2022-09-17T14:05:24;18.30;51.20
65034;DHT22;51601;51.356;12.458;2022-09-17T14:09:50;18.20;52.10
65034;DHT22;51601;51.356;12.458;2022-09-17T14:14:45;18.10;52.30
65034;DHT22;51601;51.356;12.458;2022-09-17T14:19:03;18.10;51.90
65034;DHT22;51601;51.356;12.458;2022-09-17T14:23:18;17.90;51.10
65034;DHT22;51601;51.356;12.458;2022-09-17T14:27:45;17.70;49.90
65034;DHT22;51601;51.356;12.458;2022-09-17T14:32:06;17.60;49.90
65034;DHT22;51601;51.356;12.458;2022-09-17T14:36:21;17.60;49.10
65034;DHT22;51601;51.356;12.458;2022-09-17T14:40:41;17.70;47.20
65034;DHT22;51601;51.356;12.458;2022-09-17T14:44:58;17.80;48.00
65034;DHT22;51601;51.356;12.458;2022-09-17T14:49:19;17.90;48.10
65034;DHT22;51601;51.356;12.458;2022-09-17T14:53:34;17.90;48.50
65034;DHT22;51601;51.356;12.458;2022-09-17T14:57:51;18.00;48.50
65034;DHT22;51601;51.356;12.458;2022-09-17T15:02:21;18.00;48.10
65034;DHT22;51601;51.356;12.458;2022-09-17T15:06:37;18.10;47.40
65034;DHT22;51601;51.356;12.458;2022-09-17T15:10:53;18.30;46.20
65034;DHT22;51601;51.356;12.458;2022-09-17T15:15:18;18.40;44.90
65034;DHT22;51601;51.356;12.458;2022-09-17T15:19:35;18.50;44.20
65034;DHT22;51601;51.356;12.458;2022-09-17T15:23:53;18.60;42.80
65034;DHT22;51601;51.356;12.458;2022-09-17T15:28:17;18.60;40.20
65034;DHT22;51601;51.356;12.458;2022-09-17T15:32:33;18.40;39.70
65034;DHT22;51601;51.356;12.458;2022-09-17T15:37:03;18.10;40.90
65034;DHT22;51601;51.356;12.458;2022-09-17T15:41:30;17.80;40.50
65034;DHT22;51601;51.356;12.458;2022-09-17T15:45:45;17.40;41.30
65034;DHT22;51601;51.356;12.458;2022-09-17T15:50:15;17.30;43.90
65034;DHT22;51601;51.356;12.458;2022-09-17T15:54:31;17.30;45.10
65034;DHT22;51601;51.356;12.458;2022-09-17T15:58:54;17.20;46.00
65034;DHT22;51601;51.356;12.458;2022-09-17T16:08:22;16.80;47.30
65034;DHT22;51601;51.356;12.458;2022-09-17T16:12:36;16.60;48.00
65034;DHT22;51601;51.356;12.458;2022-09-17T16:16:51;16.40;48.20
65034;DHT22;51601;51.356;12.458;2022-09-17T16:21:07;16.20;47.70
65034;DHT22;51601;51.356;12.458;2022-09-17T16:25:23;16.10;47.80
65034;DHT22;51601;51.356;12.458;2022-09-17T16:29:38;16.00;48.10
65034;DHT22;51601;51.356;12.458;2022-09-17T16:33:53;15.90;48.30
65034;DHT22;51601;51.356;12.458;2022-09-17T16:38:07;15.80;48.70
65034;DHT22;51601;51.356;12.458;2022-09-17T16:42:21;15.80;49.30
65034;DHT22;51601;51.356;12.458;2022-09-17T16:46:35;15.60;50.00
65034;DHT22;51601;51.356;12.458;2022-09-17T16:50:50;15.60;50.80
65034;DHT22;51601;51.356;12.458;2022-09-17T16:55:05;15.40;51.60
65034;DHT22;51601;51.356;12.458;2022-09-17T16:59:19;15.30;52.70
65034;DHT22;51601;51.356;12.458;2022-09-17T17:03:33;15.20;56.70
65034;DHT22;51601;51.356;12.458;2022-09-17T17:07:48;15.00;59.20
65034;DHT22;51601;51.356;12.458;2022-09-17T17:12:02;14.60;60.60
65034;DHT22;51601;51.356;12.458;2022-09-17T17:16:16;14.30;61.60
65034;DHT22;51601;51.356;12.458;2022-09-17T17:20:29;14.00;62.50
65034;DHT22;51601;51.356;12.458;2022-09-17T17:24:44;13.70;63.30
65034;DHT22;51601;51.356;12.458;2022-09-17T17:28:58;13.50;64.30
65034;DHT22;51601;51.356;12.458;2022-09-17T17:33:12;13.40;65.10
65034;DHT22;51601;51.356;12.458;2022-09-17T17:37:26;13.20;65.90
65034;DHT22;51601;51.356;12.458;2022-09-17T17:41:41;13.10;66.50
65034;DHT22;51601;51.356;12.458;2022-09-17T17:45:58;13.10;67.20
65034;DHT22;51601;51.356;12.458;2022-09-17T17:50:13;13.00;67.80
65034;DHT22;51601;51.356;12.458;2022-09-17T17:54:27;13.00;68.60
65034;DHT22;51601;51.356;12.458;2022-09-17T17:58:42;12.90;69.10
65034;DHT22;51601;51.356;12.458;2022-09-17T18:02:56;12.90;69.60
65034;DHT22;51601;51.356;12.458;2022-09-17T18:07:09;12.80;69.90
65034;DHT22;51601;51.356;12.458;2022-09-17T18:11:24;12.80;70.30
65034;DHT22;51601;51.356;12.458;2022-09-17T18:15:39;12.70;70.80
65034;DHT22;51601;51.356;12.458;2022-09-17T18:19:53;12.70;71.10
65034;DHT22;51601;51.356;12.458;2022-09-17T18:24:07;12.60;71.40
65034;DHT22;51601;51.356;12.458;2022-09-17T18:28:21;12.60;71.80
65034;DHT22;51601;51.356;12.458;2022-09-17T18:32:36;12.60;72.10
65034;DHT22;51601;51.356;12.458;2022-09-17T18:36:51;12.50;72.50
65034;DHT22;51601;51.356;12.458;2022-09-17T18:41:06;12.40;72.80
65034;DHT22;51601;51.356;12.458;2022-09-17T18:45:20;12.40;73.20
65034;DHT22;51601;51.356;12.458;2022-09-17T18:49:35;12.30;73.50
65034;DHT22;51601;51.356;12.458;2022-09-17T18:53:49;12.30;74.60
65034;DHT22;51601;51.356;12.458;2022-09-17T18:58:03;12.30;74.60
65034;DHT22;51601;51.356;12.458;2022-09-17T19:02:17;12.20;75.30
65034;DHT22;51601;51.356;12.458;2022-09-17T19:06:32;12.10;76.30
65034;DHT22;51601;51.356;12.458;2022-09-17T19:10:49;12.10;77.20
65034;DHT22;51601;51.356;12.458;2022-09-17T19:15:03;12.10;77.80
65034;DHT22;51601;51.356;12.458;2022-09-17T19:19:17;12.00;78.00
65034;DHT22;51601;51.356;12.458;2022-09-17T19:23:32;12.00;77.90
65034;DHT22;51601;51.356;12.458;2022-09-17T19:27:47;12.00;78.50
65034;DHT22;51601;51.356;12.458;2022-09-17T19:32:01;12.00;79.20
65034;DHT22;51601;51.356;12.458;2022-09-17T19:36:16;11.90;79.80
65034;DHT22;51601;51.356;12.458;2022-09-17T19:40:32;11.90;80.20
65034;DHT22;51601;51.356;12.458;2022-09-17T19:44:45;11.90;80.60
65034;DHT22;51601;51.356;12.458;2022-09-17T19:48:59;11.80;80.80
65034;DHT22;51601;51.356;12.458;2022-09-17T19:53:13;11.90;81.10
65034;DHT22;51601;51.356;12.458;2022-09-17T19:57:28;11.90;81.30
65034;DHT22;51601;51.356;12.458;2022-09-17T20:01:42;11.90;81.20
65034;DHT22;51601;51.356;12.458;2022-09-17T20:06:01;11.90;81.30
65034;DHT22;51601;51.356;12.458;2022-09-17T20:10:15;11.90;81.40
65034;DHT22;51601;51.356;12.458;2022-09-17T20:14:31;11.90;81.50
65034;DHT22;51601;51.356;12.458;2022-09-17T20:18:45;11.90;81.50
65034;DHT22;51601;51.356;12.458;2022-09-17T20:22:59;11.90;81.50
65034;DHT22;51601;51.356;12.458;2022-09-17T20:27:12;11.90;82.70
65034;DHT22;51601;51.356;12.458;2022-09-17T20:31:29;11.90;82.50
65034;DHT22;51601;51.356;12.458;2022-09-17T20:35:43;11.90;83.10
65034;DHT22;51601;51.356;12.458;2022-09-17T20:39:56;11.90;83.40
65034;DHT22;51601;51.356;12.458;2022-09-17T20:44:10;11.90;83.50
65034;DHT22;51601;51.356;12.458;2022-09-17T20:48:26;11.90;83.30
65034;DHT22;51601;51.356;12.458;2022-09-17T20:52:40;11.80;83.60
65034;DHT22;51601;51.356;12.458;2022-09-17T20:56:53;11.60;84.50
65034;DHT22;51601;51.356;12.458;2022-09-17T21:01:08;11.40;85.50
65034;DHT22;51601;51.356;12.458;2022-09-17T21:05:26;11.30;86.40
65034;DHT22;51601;51.356;12.458;2022-09-17T21:09:40;11.20;87.20
65034;DHT22;51601;51.356;12.458;2022-09-17T21:13:54;11.10;87.60
65034;DHT22;51601;51.356;12.458;2022-09-17T21:18:08;11.00;87.90
65034;DHT22;51601;51.356;12.458;2022-09-17T21:22:23;11.00;88.30
65034;DHT22;51601;51.356;12.458;2022-09-17T21:26:36;10.90;89.50
65034;DHT22;51601;51.356;12.458;2022-09-17T21:30:50;10.90;89.20
65034;DHT22;51601;51.356;12.458;2022-09-17T21:35:04;10.90;89.60
65034;DHT22;51601;51.356;12.458;2022-09-17T21:39:20;10.80;90.00
65034;DHT22;51601;51.356;12.458;2022-09-17T21:43:34;10.80;90.20
65034;DHT22;51601;51.356;12.458;2022-09-17T21:47:48;10.80;90.70
65034;DHT22;51601;51.356;12.458;2022-09-17T21:52:03;10.70;90.70
65034;DHT22;51601;51.356;12.458;2022-09-17T21:56:19;10.70;91.00
65034;DHT22;51601;51.356;12.458;2022-09-17T22:00:35;10.70;91.30
65034;DHT22;51601;51.356;12.458;2022-09-17T22:04:49;10.70;91.90
65034;DHT22;51601;51.356;12.458;2022-09-17T22:09:04;10.60;91.80
65034;DHT22;51601;51.356;12.458;2022-09-17T22:13:19;10.60;92.00
65034;DHT22;51601;51.356;12.458;2022-09-17T22:17:33;10.60;92.10
65034;DHT22;51601;51.356;12.458;2022-09-17T22:21:48;10.70;92.30
65034;DHT22;51601;51.356;12.458;2022-09-17T22:26:04;10.60;92.40
65034;DHT22;51601;51.356;12.458;2022-09-17T22:30:19;10.60;92.60
65034;DHT22;51601;51.356;12.458;2022-09-17T22:34:33;10.60;92.80
65034;DHT22;51601;51.356;12.458;2022-09-17T22:38:49;10.60;93.00
65034;DHT22;51601;51.356;12.458;2022-09-17T22:43:03;10.60;93.10
65034;DHT22;51601;51.356;12.458;2022-09-17T22:47:18;10.60;93.30
65034;DHT22;51601;51.356;12.458;2022-09-17T22:51:32;10.60;93.40
65034;DHT22;51601;51.356;12.458;2022-09-17T22:55:53;10.60;93.50
65034;DHT22;51601;51.356;12.458;2022-09-17T23:00:08;10.70;93.70
65034;DHT22;51601;51.356;12.458;2022-09-17T23:04:25;10.70;93.80
65034;DHT22;51601;51.356;12.458;2022-09-17T23:08:39;10.60;93.90
65034;DHT22;51601;51.356;12.458;2022-09-17T23:12:53;10.70;94.00
65034;DHT22;51601;51.356;12.458;2022-09-17T23:17:06;10.70;94.40
65034;DHT22;51601;51.356;12.458;2022-09-17T23:21:22;10.60;94.10
65034;DHT22;51601;51.356;12.458;2022-09-17T23:25:35;10.70;94.20
65034;DHT22;51601;51.356;12.458;2022-09-17T23:29:49;10.70;94.30
65034;DHT22;51601;51.356;12.458;2022-09-17T23:34:03;10.70;94.30
65034;DHT22;51601;51.356;12.458;2022-09-17T23:38:19;10.80;94.30
65034;DHT22;51601;51.356;12.458;2022-09-17T23:42:34;10.80;94.20
65034;DHT22;51601;51.356;12.458;2022-09-17T23:46:48;10.80;94.10
65034;DHT22;51601;51.356;12.458;2022-09-17T23:51:02;10.90;94.10
65034;DHT22;51601;51.356;12.458;2022-09-17T23:55:17;10.80;94.00
65034;DHT22;51601;51.356;12.458;2022-09-17T23:59:31;10.90;94.00
